sensor_id;sensor_type;location;lat;lon;timestamp;P1;durP1;ratioP1;P2;durP2;ratioP2
79066;SDS011;68470;50.224;14.348;2023-03-30T00:01:03;48.03;;;25.83;;
79066;SDS011;68470;50.224;14.348;2023-03-30T00:03:30;51.65;;;27.52;;
79066;SDS011;68470;50.224;14.348;2023-03-30T00:05:56;78.57;;;31.27;;
79066;SDS011;68470;50.224;14.348;2023-03-30T00:08:27;57.47;;;28.83;;
79066;SDS011;68470;50.224;14.348;2023-03-30T00:11:08;62.83;;;29.55;;
79066;SDS011;68470;50.224;14.348;2023-03-30T00:13:36;58.05;;;26.42;;
79066;SDS011;68470;50.224;14.348;2023-03-30T00:16:02;55.20;;;27.80;;
79066;SDS011;68470;50.224;14.348;2023-03-30T00:18:29;53.55;;;24.65;;
79066;SDS011;68470;50.224;14.348;2023-03-30T00:20:55;51.33;;;26.33;;
79066;SDS011;68470;50.224;14.348;2023-03-30T00:23:22;47.78;;;24.52;;
79066;SDS011;68470;50.224;14.348;2023-03-30T00:25:48;46.03;;;23.55;;
79066;SDS011;68470;50.224;14.348;2023-03-30T00:28:14;42.13;;;22.50;;
79066;SDS011;68470;50.224;14.348;2023-03-30T00:30:40;42.22;;;22.45;;
79066;SDS011;68470;50.224;14.348;2023-03-30T00:33:05;33.92;;;18.88;;
79066;SDS011;68470;50.224;14.348;2023-03-30T00:35:31;41.35;;;21.73;;
79066;SDS011;68470;50.224;14.348;2023-03-30T00:37:58;50.22;;;24.27;;
79066;SDS011;68470;50.224;14.348;2023-03-30T00:40:28;43.00;;;22.42;;
79066;SDS011;68470;50.224;14.348;2023-03-30T00:43:00;41.58;;;24.35;;
79066;SDS011;68470;50.224;14.348;2023-03-30T00:45:31;49.25;;;24.55;;
79066;SDS011;68470;50.224;14.348;2023-03-30T00:50:44;29.23;;;15.65;;
79066;SDS011;68470;50.224;14.348;2023-03-30T00:55:49;31.63;;;17.95;;
79066;SDS011;68470;50.224;14.348;2023-03-30T00:58:17;35.15;;;17.98;;
79066;SDS011;68470;50.224;14.348;2023-03-30T01:00:45;37.88;;;18.08;;
79066;SDS011;68470;50.224;14.348;2023-03-30T01:03:30;37.13;;;18.88;;
79066;SDS011;68470;50.224;14.348;2023-03-30T01:06:00;31.20;;;16.83;;
79066;SDS011;68470;50.224;14.348;2023-03-30T01:08:29;39.50;;;17.83;;
79066;SDS011;68470;50.224;14.348;2023-03-30T01:10:59;36.25;;;18.30;;
79066;SDS011;68470;50.224;14.348;2023-03-30T01:13:26;55.05;;;28.42;;
79066;SDS011;68470;50.224;14.348;2023-03-30T01:22:04;34.67;;;18.30;;
79066;SDS011;68470;50.224;14.348;2023-03-30T01:46:50;32.83;;;17.98;;
79066;SDS011;68470;50.224;14.348;2023-03-30T01:49:49;32.92;;;18.08;;
79066;SDS011;68470;50.224;14.348;2023-03-30T01:54:57;51.97;;;26.05;;
79066;SDS011;68470;50.224;14.348;2023-03-30T01:57:29;39.97;;;22.52;;
79066;SDS011;68470;50.224;14.348;2023-03-30T02:00:09;44.20;;;22.90;;
79066;SDS011;68470;50.224;14.348;2023-03-30T02:02:40;39.00;;;20.60;;
79066;SDS011;68470;50.224;14.348;2023-03-30T02:05:20;34.22;;;16.65;;
79066;SDS011;68470;50.224;14.348;2023-03-30T02:07:52;32.55;;;17.65;;
79066;SDS011;68470;50.224;14.348;2023-03-30T02:10:22;35.42;;;18.88;;
79066;SDS011;68470;50.224;14.348;2023-03-30T02:12:51;31.65;;;17.83;;
79066;SDS011;68470;50.224;14.348;2023-03-30T02:15:20;31.70;;;18.35;;
79066;SDS011;68470;50.224;14.348;2023-03-30T02:17:47;35.45;;;16.35;;
79066;SDS011;68470;50.224;14.348;2023-03-30T02:20:14;32.00;;;18.27;;
79066;SDS011;68470;50.224;14.348;2023-03-30T02:25:09;34.13;;;18.52;;
79066;SDS011;68470;50.224;14.348;2023-03-30T02:27:35;31.23;;;18.40;;
79066;SDS011;68470;50.224;14.348;2023-03-30T02:30:04;26.10;;;14.43;;
79066;SDS011;68470;50.224;14.348;2023-03-30T02:32:42;26.17;;;15.60;;
79066;SDS011;68470;50.224;14.348;2023-03-30T02:35:23;21.90;;;12.68;;
79066;SDS011;68470;50.224;14.348;2023-03-30T02:40:59;25.00;;;15.25;;
79066;SDS011;68470;50.224;14.348;2023-03-30T02:46:12;23.83;;;15.90;;
79066;SDS011;68470;50.224;14.348;2023-03-30T02:51:41;39.83;;;20.20;;
79066;SDS011;68470;50.224;14.348;2023-03-30T02:54:28;26.08;;;15.65;;
79066;SDS011;68470;50.224;14.348;2023-03-30T02:59:42;59.72;;;29.00;;
79066;SDS011;68470;50.224;14.348;2023-03-30T03:02:16;13.55;;;8.43;;
79066;SDS011;68470;50.224;14.348;2023-03-30T03:04:46;12.05;;;7.65;;
79066;SDS011;68470;50.224;14.348;2023-03-30T03:07:15;14.18;;;8.60;;
79066;SDS011;68470;50.224;14.348;2023-03-30T03:09:42;19.70;;;9.73;;
79066;SDS011;68470;50.224;14.348;2023-03-30T03:12:08;21.83;;;11.05;;
79066;SDS011;68470;50.224;14.348;2023-03-30T03:14:34;35.72;;;17.08;;
79066;SDS011;68470;50.224;14.348;2023-03-30T03:17:01;39.53;;;19.67;;
79066;SDS011;68470;50.224;14.348;2023-03-30T03:19:26;23.13;;;11.65;;
79066;SDS011;68470;50.224;14.348;2023-03-30T03:21:52;15.40;;;9.43;;
79066;SDS011;68470;50.224;14.348;2023-03-30T03:24:17;22.65;;;11.82;;
79066;SDS011;68470;50.224;14.348;2023-03-30T03:26:43;24.75;;;11.73;;
79066;SDS011;68470;50.224;14.348;2023-03-30T03:29:10;18.50;;;9.77;;
79066;SDS011;68470;50.224;14.348;2023-03-30T03:31:36;20.52;;;10.07;;
79066;SDS011;68470;50.224;14.348;2023-03-30T03:34:02;22.80;;;12.55;;
79066;SDS011;68470;50.224;14.348;2023-03-30T03:36:28;68.88;;;28.38;;
79066;SDS011;68470;50.224;14.348;2023-03-30T03:38:54;18.42;;;11.30;;
79066;SDS011;68470;50.224;14.348;2023-03-30T03:41:21;33.83;;;15.93;;
79066;SDS011;68470;50.224;14.348;2023-03-30T03:43:46;21.67;;;11.77;;
79066;SDS011;68470;50.224;14.348;2023-03-30T03:46:12;27.83;;;15.27;;
79066;SDS011;68470;50.224;14.348;2023-03-30T03:48:38;24.42;;;15.15;;
79066;SDS011;68470;50.224;14.348;2023-03-30T03:51:05;40.03;;;19.42;;
79066;SDS011;68470;50.224;14.348;2023-03-30T03:53:31;48.50;;;20.38;;
79066;SDS011;68470;50.224;14.348;2023-03-30T03:55:57;33.45;;;17.17;;
79066;SDS011;68470;50.224;14.348;2023-03-30T03:58:23;34.33;;;17.55;;
79066;SDS011;68470;50.224;14.348;2023-03-30T04:00:50;37.03;;;16.45;;
79066;SDS011;68470;50.224;14.348;2023-03-30T04:03:21;42.53;;;20.45;;
79066;SDS011;68470;50.224;14.348;2023-03-30T04:05:47;52.10;;;22.35;;
79066;SDS011;68470;50.224;14.348;2023-03-30T04:08:12;29.35;;;14.18;;
79066;SDS011;68470;50.224;14.348;2023-03-30T04:10:39;52.67;;;23.65;;
79066;SDS011;68470;50.224;14.348;2023-03-30T04:13:05;30.50;;;16.33;;
79066;SDS011;68470;50.224;14.348;2023-03-30T04:15:32;32.45;;;16.75;;
79066;SDS011;68470;50.224;14.348;2023-03-30T04:17:57;27.15;;;17.33;;
79066;SDS011;68470;50.224;14.348;2023-03-30T04:20:25;23.65;;;12.00;;
79066;SDS011;68470;50.224;14.348;2023-03-30T04:22:51;23.08;;;14.00;;
79066;SDS011;68470;50.224;14.348;2023-03-30T04:25:19;27.52;;;16.33;;
79066;SDS011;68470;50.224;14.348;2023-03-30T04:27:46;23.52;;;14.55;;
79066;SDS011;68470;50.224;14.348;2023-03-30T04:30:16;32.75;;;17.67;;
79066;SDS011;68470;50.224;14.348;2023-03-30T04:32:43;29.02;;;17.35;;
79066;SDS011;68470;50.224;14.348;2023-03-30T04:35:11;33.40;;;16.75;;
79066;SDS011;68470;50.224;14.348;2023-03-30T04:37:38;27.00;;;15.25;;
79066;SDS011;68470;50.224;14.348;2023-03-30T04:40:07;27.50;;;14.93;;
79066;SDS011;68470;50.224;14.348;2023-03-30T04:42:34;30.52;;;15.13;;
79066;SDS011;68470;50.224;14.348;2023-03-30T04:45:02;23.38;;;14.77;;
79066;SDS011;68470;50.224;14.348;2023-03-30T04:47:29;27.83;;;13.88;;
79066;SDS011;68470;50.224;14.348;2023-03-30T04:49:56;23.80;;;12.52;;
79066;SDS011;68470;50.224;14.348;2023-03-30T04:52:22;23.65;;;13.18;;
79066;SDS011;68470;50.224;14.348;2023-03-30T04:54:48;24.25;;;11.82;;
79066;SDS011;68470;50.224;14.348;2023-03-30T04:57:14;28.98;;;15.13;;
79066;SDS011;68470;50.224;14.348;2023-03-30T04:59:41;23.95;;;14.23;;
79066;SDS011;68470;50.224;14.348;2023-03-30T05:02:07;22.98;;;13.73;;
79066;SDS011;68470;50.224;14.348;2023-03-30T05:04:34;26.88;;;13.20;;
79066;SDS011;68470;50.224;14.348;2023-03-30T05:07:00;27.83;;;12.85;;
79066;SDS011;68470;50.224;14.348;2023-03-30T05:09:27;36.75;;;20.77;;
79066;SDS011;68470;50.224;14.348;2023-03-30T05:11:53;27.48;;;15.38;;
79066;SDS011;68470;50.224;14.348;2023-03-30T05:14:19;23.77;;;12.80;;
79066;SDS011;68470;50.224;14.348;2023-03-30T05:16:45;22.65;;;13.30;;
79066;SDS011;68470;50.224;14.348;2023-03-30T05:19:11;25.70;;;15.48;;
79066;SDS011;68470;50.224;14.348;2023-03-30T05:21:37;25.90;;;15.05;;
79066;SDS011;68470;50.224;14.348;2023-03-30T05:24:03;27.77;;;15.50;;
79066;SDS011;68470;50.224;14.348;2023-03-30T05:26:29;30.77;;;15.55;;
79066;SDS011;68470;50.224;14.348;2023-03-30T05:28:55;36.03;;;17.73;;
79066;SDS011;68470;50.224;14.348;2023-03-30T05:31:20;30.58;;;15.40;;
79066;SDS011;68470;50.224;14.348;2023-03-30T05:33:47;31.63;;;14.60;;
79066;SDS011;68470;50.224;14.348;2023-03-30T05:36:12;49.13;;;22.00;;
79066;SDS011;68470;50.224;14.348;2023-03-30T05:38:39;32.13;;;17.42;;
79066;SDS011;68470;50.224;14.348;2023-03-30T05:41:04;36.92;;;16.98;;
79066;SDS011;68470;50.224;14.348;2023-03-30T05:43:34;45.58;;;23.95;;
79066;SDS011;68470;50.224;14.348;2023-03-30T05:46:01;35.90;;;19.35;;
79066;SDS011;68470;50.224;14.348;2023-03-30T05:48:28;37.28;;;20.60;;
79066;SDS011;68470;50.224;14.348;2023-03-30T05:50:54;27.65;;;15.93;;
79066;SDS011;68470;50.224;14.348;2023-03-30T05:53:20;29.60;;;17.13;;
79066;SDS011;68470;50.224;14.348;2023-03-30T05:55:46;35.35;;;19.08;;
79066;SDS011;68470;50.224;14.348;2023-03-30T05:58:13;24.55;;;13.77;;
79066;SDS011;68470;50.224;14.348;2023-03-30T06:00:41;23.13;;;13.02;;
79066;SDS011;68470;50.224;14.348;2023-03-30T06:03:08;23.52;;;11.82;;
79066;SDS011;68470;50.224;14.348;2023-03-30T06:05:36;24.67;;;13.90;;
79066;SDS011;68470;50.224;14.348;2023-03-30T06:08:08;20.20;;;10.70;;
79066;SDS011;68470;50.224;14.348;2023-03-30T06:10:34;23.27;;;13.38;;
79066;SDS011;68470;50.224;14.348;2023-03-30T06:13:01;18.70;;;10.85;;
79066;SDS011;68470;50.224;14.348;2023-03-30T06:15:27;20.30;;;12.27;;
79066;SDS011;68470;50.224;14.348;2023-03-30T06:17:53;25.10;;;13.88;;
79066;SDS011;68470;50.224;14.348;2023-03-30T06:20:20;24.17;;;15.00;;
79066;SDS011;68470;50.224;14.348;2023-03-30T06:22:46;28.88;;;17.40;;
79066;SDS011;68470;50.224;14.348;2023-03-30T06:25:14;36.00;;;22.38;;
79066;SDS011;68470;50.224;14.348;2023-03-30T06:27:40;38.10;;;23.77;;
79066;SDS011;68470;50.224;14.348;2023-03-30T06:30:06;34.50;;;22.60;;
79066;SDS011;68470;50.224;14.348;2023-03-30T06:32:35;24.58;;;14.02;;
79066;SDS011;68470;50.224;14.348;2023-03-30T06:35:02;23.48;;;14.35;;
79066;SDS011;68470;50.224;14.348;2023-03-30T06:37:32;28.25;;;17.77;;
79066;SDS011;68470;50.224;14.348;2023-03-30T06:39:59;23.08;;;13.20;;
79066;SDS011;68470;50.224;14.348;2023-03-30T06:42:25;26.08;;;15.00;;
79066;SDS011;68470;50.224;14.348;2023-03-30T06:44:52;22.35;;;13.10;;
79066;SDS011;68470;50.224;14.348;2023-03-30T06:47:18;25.65;;;14.68;;
79066;SDS011;68470;50.224;14.348;2023-03-30T06:49:44;23.63;;;14.25;;
79066;SDS011;68470;50.224;14.348;2023-03-30T06:52:10;22.50;;;13.68;;
79066;SDS011;68470;50.224;14.348;2023-03-30T06:54:38;23.42;;;14.05;;
79066;SDS011;68470;50.224;14.348;2023-03-30T06:57:03;25.10;;;13.80;;
79066;SDS011;68470;50.224;14.348;2023-03-30T06:59:29;19.50;;;11.90;;
79066;SDS011;68470;50.224;14.348;2023-03-30T07:01:57;21.75;;;13.10;;
79066;SDS011;68470;50.224;14.348;2023-03-30T07:04:24;19.42;;;10.48;;
79066;SDS011;68470;50.224;14.348;2023-03-30T07:06:50;17.80;;;10.40;;
79066;SDS011;68470;50.224;14.348;2023-03-30T07:09:16;17.20;;;9.65;;
79066;SDS011;68470;50.224;14.348;2023-03-30T07:11:42;19.83;;;11.88;;
79066;SDS011;68470;50.224;14.348;2023-03-30T07:14:08;20.75;;;11.00;;
79066;SDS011;68470;50.224;14.348;2023-03-30T07:16:35;18.15;;;11.13;;
79066;SDS011;68470;50.224;14.348;2023-03-30T07:19:02;22.52;;;12.30;;
79066;SDS011;68470;50.224;14.348;2023-03-30T07:21:29;24.13;;;13.13;;
79066;SDS011;68470;50.224;14.348;2023-03-30T07:23:57;21.08;;;12.10;;
79066;SDS011;68470;50.224;14.348;2023-03-30T07:26:26;21.98;;;11.88;;
79066;SDS011;68470;50.224;14.348;2023-03-30T07:28:53;28.08;;;15.43;;
79066;SDS011;68470;50.224;14.348;2023-03-30T07:31:20;35.90;;;19.25;;
79066;SDS011;68470;50.224;14.348;2023-03-30T07:33:47;37.42;;;17.33;;
79066;SDS011;68470;50.224;14.348;2023-03-30T07:36:13;32.50;;;15.45;;
79066;SDS011;68470;50.224;14.348;2023-03-30T07:38:40;22.58;;;12.80;;
79066;SDS011;68470;50.224;14.348;2023-03-30T07:41:07;28.30;;;15.00;;
79066;SDS011;68470;50.224;14.348;2023-03-30T07:43:34;24.98;;;12.80;;
79066;SDS011;68470;50.224;14.348;2023-03-30T07:45:59;28.52;;;16.38;;
79066;SDS011;68470;50.224;14.348;2023-03-30T07:48:26;26.45;;;13.80;;
79066;SDS011;68470;50.224;14.348;2023-03-30T07:51:00;30.70;;;17.10;;
79066;SDS011;68470;50.224;14.348;2023-03-30T07:53:28;29.27;;;17.33;;
79066;SDS011;68470;50.224;14.348;2023-03-30T07:55:54;28.50;;;13.32;;
79066;SDS011;68470;50.224;14.348;2023-03-30T07:58:20;29.10;;;16.17;;
79066;SDS011;68470;50.224;14.348;2023-03-30T08:00:46;27.27;;;14.43;;
79066;SDS011;68470;50.224;14.348;2023-03-30T08:03:13;40.47;;;21.52;;
79066;SDS011;68470;50.224;14.348;2023-03-30T08:05:40;47.80;;;22.92;;
79066;SDS011;68470;50.224;14.348;2023-03-30T08:08:06;34.30;;;17.20;;
79066;SDS011;68470;50.224;14.348;2023-03-30T08:10:32;33.13;;;16.58;;
79066;SDS011;68470;50.224;14.348;2023-03-30T08:12:59;28.50;;;14.15;;
79066;SDS011;68470;50.224;14.348;2023-03-30T08:15:25;30.15;;;15.10;;
79066;SDS011;68470;50.224;14.348;2023-03-30T08:17:52;27.30;;;13.88;;
79066;SDS011;68470;50.224;14.348;2023-03-30T08:20:18;31.52;;;16.70;;
79066;SDS011;68470;50.224;14.348;2023-03-30T08:22:44;32.70;;;15.77;;
79066;SDS011;68470;50.224;14.348;2023-03-30T08:25:09;32.03;;;16.30;;
79066;SDS011;68470;50.224;14.348;2023-03-30T08:27:36;28.90;;;15.55;;
79066;SDS011;68470;50.224;14.348;2023-03-30T08:30:02;29.90;;;15.20;;
79066;SDS011;68470;50.224;14.348;2023-03-30T08:32:28;29.35;;;16.02;;
79066;SDS011;68470;50.224;14.348;2023-03-30T08:34:54;31.17;;;18.15;;
79066;SDS011;68470;50.224;14.348;2023-03-30T08:37:20;29.55;;;16.35;;
79066;SDS011;68470;50.224;14.348;2023-03-30T08:39:46;31.30;;;14.88;;
79066;SDS011;68470;50.224;14.348;2023-03-30T08:44:51;25.92;;;15.77;;
79066;SDS011;68470;50.224;14.348;2023-03-30T08:47:26;32.97;;;17.95;;
79066;SDS011;68470;50.224;14.348;2023-03-30T08:50:05;33.22;;;19.60;;
79066;SDS011;68470;50.224;14.348;2023-03-30T08:52:41;32.17;;;19.42;;
79066;SDS011;68470;50.224;14.348;2023-03-30T08:55:16;29.08;;;16.98;;
79066;SDS011;68470;50.224;14.348;2023-03-30T09:00:19;23.33;;;12.73;;
79066;SDS011;68470;50.224;14.348;2023-03-30T09:03:35;26.00;;;16.60;;
79066;SDS011;68470;50.224;14.348;2023-03-30T09:06:07;29.13;;;16.92;;
79066;SDS011;68470;50.224;14.348;2023-03-30T09:08:38;32.85;;;16.48;;
79066;SDS011;68470;50.224;14.348;2023-03-30T09:11:08;28.25;;;17.00;;
79066;SDS011;68470;50.224;14.348;2023-03-30T09:13:38;28.58;;;14.48;;
79066;SDS011;68470;50.224;14.348;2023-03-30T09:19:01;25.00;;;14.05;;
79066;SDS011;68470;50.224;14.348;2023-03-30T09:21:33;29.15;;;17.13;;
79066;SDS011;68470;50.224;14.348;2023-03-30T09:23:59;35.13;;;17.30;;
79066;SDS011;68470;50.224;14.348;2023-03-30T09:26:42;37.88;;;18.85;;
79066;SDS011;68470;50.224;14.348;2023-03-30T09:31:48;35.53;;;18.92;;
79066;SDS011;68470;50.224;14.348;2023-03-30T09:37:09;35.42;;;17.25;;
79066;SDS011;68470;50.224;14.348;2023-03-30T09:39:37;33.00;;;16.33;;
79066;SDS011;68470;50.224;14.348;2023-03-30T09:44:56;36.67;;;20.17;;
79066;SDS011;68470;50.224;14.348;2023-03-30T09:47:36;33.53;;;18.20;;
79066;SDS011;68470;50.224;14.348;2023-03-30T09:50:04;26.13;;;14.52;;
79066;SDS011;68470;50.224;14.348;2023-03-30T09:52:41;44.75;;;21.45;;
79066;SDS011;68470;50.224;14.348;2023-03-30T09:55:26;42.05;;;21.30;;
79066;SDS011;68470;50.224;14.348;2023-03-30T09:57:53;33.47;;;16.98;;
79066;SDS011;68470;50.224;14.348;2023-03-30T10:00:44;30.25;;;17.98;;
79066;SDS011;68470;50.224;14.348;2023-03-30T10:03:25;32.78;;;19.65;;
79066;SDS011;68470;50.224;14.348;2023-03-30T10:05:59;30.38;;;16.55;;
79066;SDS011;68470;50.224;14.348;2023-03-30T10:08:52;31.52;;;16.55;;
79066;SDS011;68470;50.224;14.348;2023-03-30T10:11:21;46.95;;;22.88;;
79066;SDS011;68470;50.224;14.348;2023-03-30T10:14:05;40.58;;;19.08;;
79066;SDS011;68470;50.224;14.348;2023-03-30T10:16:47;35.50;;;18.17;;
79066;SDS011;68470;50.224;14.348;2023-03-30T10:19:20;37.33;;;19.00;;
79066;SDS011;68470;50.224;14.348;2023-03-30T10:21:46;35.72;;;19.75;;
79066;SDS011;68470;50.224;14.348;2023-03-30T10:24:18;38.22;;;18.15;;
79066;SDS011;68470;50.224;14.348;2023-03-30T10:26:48;42.63;;;21.35;;
79066;SDS011;68470;50.224;14.348;2023-03-30T10:29:17;31.42;;;15.68;;
79066;SDS011;68470;50.224;14.348;2023-03-30T10:31:47;33.15;;;16.73;;
79066;SDS011;68470;50.224;14.348;2023-03-30T10:34:22;38.28;;;19.08;;
79066;SDS011;68470;50.224;14.348;2023-03-30T10:36:59;38.05;;;17.88;;
79066;SDS011;68470;50.224;14.348;2023-03-30T10:39:29;45.28;;;24.27;;
79066;SDS011;68470;50.224;14.348;2023-03-30T10:42:01;42.30;;;20.70;;
79066;SDS011;68470;50.224;14.348;2023-03-30T10:44:31;48.78;;;22.60;;
79066;SDS011;68470;50.224;14.348;2023-03-30T10:50:12;85.40;;;34.03;;
79066;SDS011;68470;50.224;14.348;2023-03-30T10:55:39;51.75;;;23.17;;
79066;SDS011;68470;50.224;14.348;2023-03-30T11:03:25;48.92;;;23.58;;
79066;SDS011;68470;50.224;14.348;2023-03-30T11:05:57;50.50;;;21.63;;
79066;SDS011;68470;50.224;14.348;2023-03-30T11:08:38;80.13;;;39.47;;
79066;SDS011;68470;50.224;14.348;2023-03-30T11:11:09;79.85;;;34.65;;
79066;SDS011;68470;50.224;14.348;2023-03-30T11:13:41;56.35;;;25.85;;
79066;SDS011;68470;50.224;14.348;2023-03-30T11:16:17;71.95;;;31.63;;
79066;SDS011;68470;50.224;14.348;2023-03-30T11:18:56;66.75;;;31.00;;
79066;SDS011;68470;50.224;14.348;2023-03-30T11:21:45;71.18;;;35.53;;
79066;SDS011;68470;50.224;14.348;2023-03-30T11:24:20;57.85;;;26.25;;
79066;SDS011;68470;50.224;14.348;2023-03-30T11:29:48;34.75;;;15.80;;
79066;SDS011;68470;50.224;14.348;2023-03-30T11:32:39;43.75;;;18.27;;
79066;SDS011;68470;50.224;14.348;2023-03-30T11:35:19;41.47;;;22.65;;
79066;SDS011;68470;50.224;14.348;2023-03-30T11:43:27;39.15;;;20.13;;
79066;SDS011;68470;50.224;14.348;2023-03-30T11:45:57;36.70;;;16.70;;
79066;SDS011;68470;50.224;14.348;2023-03-30T11:51:14;31.45;;;16.55;;
79066;SDS011;68470;50.224;14.348;2023-03-30T11:54:03;35.20;;;17.38;;
79066;SDS011;68470;50.224;14.348;2023-03-30T12:02:50;33.53;;;16.05;;
79066;SDS011;68470;50.224;14.348;2023-03-30T12:05:50;39.10;;;16.48;;
79066;SDS011;68470;50.224;14.348;2023-03-30T12:11:13;30.38;;;16.77;;
79066;SDS011;68470;50.224;14.348;2023-03-30T12:13:53;31.65;;;16.40;;
79066;SDS011;68470;50.224;14.348;2023-03-30T12:16:30;35.20;;;16.00;;
79066;SDS011;68470;50.224;14.348;2023-03-30T12:19:12;48.80;;;22.38;;
79066;SDS011;68470;50.224;14.348;2023-03-30T12:27:05;30.25;;;16.38;;
79066;SDS011;68470;50.224;14.348;2023-03-30T12:29:50;29.20;;;15.10;;
79066;SDS011;68470;50.224;14.348;2023-03-30T12:32:25;16.48;;;8.23;;
79066;SDS011;68470;50.224;14.348;2023-03-30T12:34:51;13.05;;;7.63;;
79066;SDS011;68470;50.224;14.348;2023-03-30T12:40:04;12.32;;;7.05;;
79066;SDS011;68470;50.224;14.348;2023-03-30T12:42:39;10.18;;;5.50;;
79066;SDS011;68470;50.224;14.348;2023-03-30T12:45:29;14.13;;;7.53;;
79066;SDS011;68470;50.224;14.348;2023-03-30T12:48:08;8.73;;;5.40;;
79066;SDS011;68470;50.224;14.348;2023-03-30T12:56:59;10.65;;;6.25;;
79066;SDS011;68470;50.224;14.348;2023-03-30T12:59:41;9.38;;;5.53;;
79066;SDS011;68470;50.224;14.348;2023-03-30T13:04:57;6.00;;;4.10;;
79066;SDS011;68470;50.224;14.348;2023-03-30T13:07:25;5.80;;;3.80;;
79066;SDS011;68470;50.224;14.348;2023-03-30T13:09:55;4.78;;;3.20;;
79066;SDS011;68470;50.224;14.348;2023-03-30T13:12:25;6.50;;;2.88;;
79066;SDS011;68470;50.224;14.348;2023-03-30T13:17:58;5.05;;;3.05;;
79066;SDS011;68470;50.224;14.348;2023-03-30T13:20:28;4.88;;;2.92;;
79066;SDS011;68470;50.224;14.348;2023-03-30T13:25:52;8.52;;;4.45;;
79066;SDS011;68470;50.224;14.348;2023-03-30T13:29:10;4.97;;;2.85;;
79066;SDS011;68470;50.224;14.348;2023-03-30T13:31:54;6.45;;;3.95;;
79066;SDS011;68470;50.224;14.348;2023-03-30T13:37:05;5.07;;;3.25;;
79066;SDS011;68470;50.224;14.348;2023-03-30T13:39:46;5.53;;;3.45;;
79066;SDS011;68470;50.224;14.348;2023-03-30T13:48:09;3.78;;;1.80;;
79066;SDS011;68470;50.224;14.348;2023-03-30T13:50:38;6.68;;;3.50;;
79066;SDS011;68470;50.224;14.348;2023-03-30T13:53:12;5.55;;;3.25;;
79066;SDS011;68470;50.224;14.348;2023-03-30T13:55:41;6.72;;;3.53;;
79066;SDS011;68470;50.224;14.348;2023-03-30T13:58:21;7.53;;;3.20;;
79066;SDS011;68470;50.224;14.348;2023-03-30T14:00:55;13.27;;;6.22;;
79066;SDS011;68470;50.224;14.348;2023-03-30T14:03:27;7.72;;;2.90;;
79066;SDS011;68470;50.224;14.348;2023-03-30T14:05:57;6.85;;;4.00;;
79066;SDS011;68470;50.224;14.348;2023-03-30T14:08:28;6.57;;;2.85;;
79066;SDS011;68470;50.224;14.348;2023-03-30T14:10:58;5.15;;;3.60;;
79066;SDS011;68470;50.224;14.348;2023-03-30T14:13:26;5.07;;;3.28;;
79066;SDS011;68470;50.224;14.348;2023-03-30T14:15:52;4.57;;;2.60;;
79066;SDS011;68470;50.224;14.348;2023-03-30T14:18:21;3.40;;;1.98;;
79066;SDS011;68470;50.224;14.348;2023-03-30T14:26:10;54.25;;;37.85;;
79066;SDS011;68470;50.224;14.348;2023-03-30T14:31:10;6.10;;;2.25;;
79066;SDS011;68470;50.224;14.348;2023-03-30T14:33:39;3.47;;;2.10;;
79066;SDS011;68470;50.224;14.348;2023-03-30T14:36:05;11.88;;;5.15;;
79066;SDS011;68470;50.224;14.348;2023-03-30T14:38:52;10.45;;;5.32;;
79066;SDS011;68470;50.224;14.348;2023-03-30T14:41:22;11.95;;;6.10;;
79066;SDS011;68470;50.224;14.348;2023-03-30T14:43:55;9.32;;;4.15;;
79066;SDS011;68470;50.224;14.348;2023-03-30T14:46:24;18.33;;;8.20;;
79066;SDS011;68470;50.224;14.348;2023-03-30T14:48:56;10.30;;;5.40;;
79066;SDS011;68470;50.224;14.348;2023-03-30T14:53:50;14.05;;;8.60;;
79066;SDS011;68470;50.224;14.348;2023-03-30T14:56:17;7.63;;;3.72;;
79066;SDS011;68470;50.224;14.348;2023-03-30T14:58:45;18.23;;;10.60;;
79066;SDS011;68470;50.224;14.348;2023-03-30T15:01:14;21.67;;;11.88;;
79066;SDS011;68470;50.224;14.348;2023-03-30T15:03:42;6.30;;;4.13;;
79066;SDS011;68470;50.224;14.348;2023-03-30T15:06:14;5.03;;;2.33;;
79066;SDS011;68470;50.224;14.348;2023-03-30T15:08:46;7.07;;;4.80;;
79066;SDS011;68470;50.224;14.348;2023-03-30T15:11:18;4.03;;;2.88;;
79066;SDS011;68470;50.224;14.348;2023-03-30T15:13:54;4.20;;;2.92;;
79066;SDS011;68470;50.224;14.348;2023-03-30T15:16:30;4.45;;;3.00;;
79066;SDS011;68470;50.224;14.348;2023-03-30T15:19:09;3.70;;;1.90;;
79066;SDS011;68470;50.224;14.348;2023-03-30T15:21:49;3.80;;;2.05;;
79066;SDS011;68470;50.224;14.348;2023-03-30T15:24:16;3.83;;;2.92;;
79066;SDS011;68470;50.224;14.348;2023-03-30T15:26:47;6.57;;;3.40;;
79066;SDS011;68470;50.224;14.348;2023-03-30T15:29:14;6.13;;;3.28;;
79066;SDS011;68470;50.224;14.348;2023-03-30T15:31:42;4.68;;;3.17;;
79066;SDS011;68470;50.224;14.348;2023-03-30T15:34:15;4.38;;;2.60;;
79066;SDS011;68470;50.224;14.348;2023-03-30T15:36:41;5.07;;;3.63;;
79066;SDS011;68470;50.224;14.348;2023-03-30T15:42:22;4.53;;;2.80;;
79066;SDS011;68470;50.224;14.348;2023-03-30T15:44:59;6.25;;;3.83;;
79066;SDS011;68470;50.224;14.348;2023-03-30T15:47:33;5.88;;;3.10;;
79066;SDS011;68470;50.224;14.348;2023-03-30T15:49:59;6.93;;;3.08;;
79066;SDS011;68470;50.224;14.348;2023-03-30T15:52:29;3.67;;;2.30;;
79066;SDS011;68470;50.224;14.348;2023-03-30T15:55:05;6.40;;;2.83;;
79066;SDS011;68470;50.224;14.348;2023-03-30T15:57:33;4.93;;;3.00;;
79066;SDS011;68470;50.224;14.348;2023-03-30T16:00:05;7.15;;;3.03;;
79066;SDS011;68470;50.224;14.348;2023-03-30T16:02:37;5.85;;;2.78;;
79066;SDS011;68470;50.224;14.348;2023-03-30T16:05:16;7.55;;;4.15;;
79066;SDS011;68470;50.224;14.348;2023-03-30T16:07:44;7.10;;;3.08;;
79066;SDS011;68470;50.224;14.348;2023-03-30T16:10:14;4.95;;;3.60;;
79066;SDS011;68470;50.224;14.348;2023-03-30T16:12:42;6.18;;;3.30;;
79066;SDS011;68470;50.224;14.348;2023-03-30T16:15:14;8.60;;;3.95;;
79066;SDS011;68470;50.224;14.348;2023-03-30T16:17:41;8.10;;;3.55;;
79066;SDS011;68470;50.224;14.348;2023-03-30T16:20:12;7.00;;;2.90;;
79066;SDS011;68470;50.224;14.348;2023-03-30T16:22:40;6.68;;;3.25;;
79066;SDS011;68470;50.224;14.348;2023-03-30T16:25:07;8.82;;;4.47;;
79066;SDS011;68470;50.224;14.348;2023-03-30T16:27:33;9.95;;;3.80;;
79066;SDS011;68470;50.224;14.348;2023-03-30T16:30:01;7.20;;;3.58;;
79066;SDS011;68470;50.224;14.348;2023-03-30T16:32:38;5.35;;;3.20;;
79066;SDS011;68470;50.224;14.348;2023-03-30T16:35:04;8.30;;;3.53;;
79066;SDS011;68470;50.224;14.348;2023-03-30T16:37:29;7.20;;;2.92;;
79066;SDS011;68470;50.224;14.348;2023-03-30T16:39:55;5.82;;;3.28;;
79066;SDS011;68470;50.224;14.348;2023-03-30T16:42:21;5.30;;;3.35;;
79066;SDS011;68470;50.224;14.348;2023-03-30T16:44:47;9.60;;;4.25;;
79066;SDS011;68470;50.224;14.348;2023-03-30T16:47:13;6.88;;;4.05;;
79066;SDS011;68470;50.224;14.348;2023-03-30T16:49:41;4.85;;;2.58;;
79066;SDS011;68470;50.224;14.348;2023-03-30T16:52:07;4.80;;;2.80;;
79066;SDS011;68470;50.224;14.348;2023-03-30T16:54:33;9.05;;;4.65;;
79066;SDS011;68470;50.224;14.348;2023-03-30T16:57:00;6.85;;;3.60;;